createdAt,value
2023-01-30T00:01:57.897Z,0.34
2023-01-30T00:04:24.536Z,0.29
2023-01-30T00:06:51.141Z,0.30
2023-01-30T00:09:17.831Z,0.28
2023-01-30T00:11:44.388Z,0.26
2023-01-30T00:14:10.982Z,0.30
2023-01-30T00:16:37.571Z,0.31
2023-01-30T00:19:04.179Z,0.25
2023-01-30T00:21:30.952Z,0.19
2023-01-30T00:23:57.552Z,0.19
2023-01-30T00:26:24.138Z,0.22
2023-01-30T00:28:50.755Z,0.20
2023-01-30T00:31:17.428Z,0.20
2023-01-30T00:33:44.013Z,0.10
2023-01-30T00:36:11.059Z,0.14
2023-01-30T00:38:37.695Z,0.05
2023-01-30T00:41:04.814Z,0.13
2023-01-30T00:43:49.947Z,0.10
2023-01-30T00:46:50.445Z,0.14
2023-01-30T00:49:17.337Z,0.07
2023-01-30T00:51:44.262Z,0.06
2023-01-30T00:54:10.888Z,0.06
2023-01-30T00:56:37.491Z,0.06
2023-01-30T00:59:04.050Z,0.06
2023-01-30T01:01:30.582Z,0.04
2023-01-30T01:03:57.123Z,0.01
2023-01-30T01:06:23.682Z,-0.04
2023-01-30T01:08:50.270Z,0.04
2023-01-30T01:11:24.528Z,-0.02
2023-01-30T01:13:56.443Z,-0.07
2023-01-30T01:16:24.048Z,-0.10
2023-01-30T01:18:51.355Z,-0.12
2023-01-30T01:21:20.225Z,-0.12
2023-01-30T01:23:54.994Z,-0.12
2023-01-30T01:26:21.682Z,-0.16
2023-01-30T01:28:48.472Z,-0.19
2023-01-30T01:31:17.224Z,-0.24
2023-01-30T01:33:44.085Z,-0.24
2023-01-30T01:36:10.692Z,-0.20
2023-01-30T01:38:37.711Z,-0.23
2023-01-30T01:41:07.535Z,-0.24
2023-01-30T01:43:58.510Z,-0.26
2023-01-30T01:46:33.330Z,-0.33
2023-01-30T01:49:05.800Z,-0.34
2023-01-30T01:51:37.823Z,-0.39
2023-01-30T01:54:16.994Z,-0.36
2023-01-30T01:56:45.243Z,-0.41
2023-01-30T01:59:30.824Z,-0.44
2023-01-30T02:02:03.715Z,-0.43
2023-01-30T02:04:51.787Z,-0.50
2023-01-30T02:07:20.996Z,-0.52
2023-01-30T02:09:47.696Z,-0.51
2023-01-30T02:12:15.472Z,-0.55
2023-01-30T02:14:43.653Z,-0.54
2023-01-30T02:17:10.329Z,-0.54
2023-01-30T02:19:51.932Z,-0.50
2023-01-30T02:22:37.898Z,-0.50
2023-01-30T02:25:26.252Z,-0.51
2023-01-30T02:28:27.491Z,-0.52
2023-01-30T02:31:09.303Z,-0.50
2023-01-30T02:34:06.795Z,-0.55
2023-01-30T02:36:42.513Z,-0.61
2023-01-30T02:39:37.330Z,-0.68
2023-01-30T02:42:12.688Z,-0.64
2023-01-30T02:44:52.057Z,-0.64
2023-01-30T02:47:29.251Z,-0.63
2023-01-30T02:50:16.227Z,-0.65
2023-01-30T02:52:43.335Z,-0.64
2023-01-30T02:55:22.199Z,-0.70
2023-01-30T02:57:48.771Z,-0.67
2023-01-30T03:00:23.842Z,-0.68
2023-01-30T03:03:15.826Z,-0.68
2023-01-30T03:05:57.790Z,-0.73
2023-01-30T03:08:34.169Z,-0.86
2023-01-30T03:11:07.747Z,-0.78
2023-01-30T03:13:52.975Z,-0.82
2023-01-30T03:16:25.764Z,-0.81
2023-01-30T03:18:52.446Z,-0.77
2023-01-30T03:21:19.780Z,-0.79
2023-01-30T03:23:46.957Z,-0.72
2023-01-30T03:26:22.835Z,-0.65
2023-01-30T03:28:50.933Z,-0.61
2023-01-30T03:31:17.836Z,-0.60
2023-01-30T03:33:44.475Z,-0.63
2023-01-30T03:36:11.338Z,-0.60
2023-01-30T03:38:38.103Z,-0.61
2023-01-30T03:41:05.683Z,-0.60
2023-01-30T03:43:32.256Z,-0.69
2023-01-30T03:45:58.936Z,-0.80
2023-01-30T03:48:25.577Z,-0.83
2023-01-30T03:50:52.294Z,-0.90
2023-01-30T03:53:18.878Z,-0.90
2023-01-30T03:55:45.569Z,-0.95
2023-01-30T03:58:12.227Z,-0.98
2023-01-30T04:00:38.910Z,-0.98
2023-01-30T04:03:05.468Z,-0.99
2023-01-30T04:05:31.978Z,-1.03
2023-01-30T04:07:58.954Z,-1.07
2023-01-30T04:10:26.931Z,-1.03
2023-01-30T04:12:53.538Z,-1.07
2023-01-30T04:15:20.351Z,-1.04
2023-01-30T04:17:47.945Z,-1.09
2023-01-30T04:20:14.627Z,-1.06
2023-01-30T04:22:41.317Z,-1.08
2023-01-30T04:25:08.310Z,-1.17
2023-01-30T04:27:34.970Z,-1.13
2023-01-30T04:30:01.551Z,-1.16
2023-01-30T04:32:28.070Z,-1.20
2023-01-30T04:34:54.605Z,-1.23
2023-01-30T04:37:21.155Z,-1.22
2023-01-30T04:39:47.671Z,-1.29
2023-01-30T04:42:15.208Z,-1.42
2023-01-30T04:44:41.710Z,-1.38
2023-01-30T04:47:08.291Z,-1.45
2023-01-30T04:49:34.819Z,-1.48
2023-01-30T04:52:01.467Z,-1.48
2023-01-30T04:54:28.070Z,-1.44
2023-01-30T04:56:54.656Z,-1.38
2023-01-30T04:59:21.241Z,-1.33
2023-01-30T05:01:47.813Z,-1.31
2023-01-30T05:04:14.475Z,-1.31
2023-01-30T05:06:41.140Z,-1.28
2023-01-30T05:09:07.837Z,-1.27
2023-01-30T05:11:34.756Z,-1.30
2023-01-30T05:14:01.586Z,-1.25
2023-01-30T05:16:28.465Z,-1.22
2023-01-30T05:18:55.044Z,-1.24
2023-01-30T05:21:26.003Z,-1.27
2023-01-30T05:23:53.544Z,-1.21
2023-01-30T05:26:20.772Z,-1.22
2023-01-30T05:28:52.331Z,-1.19
2023-01-30T05:31:19.418Z,-1.21
2023-01-30T05:33:48.538Z,-1.19
2023-01-30T05:36:17.635Z,-1.19
2023-01-30T05:38:44.520Z,-1.21
2023-01-30T05:41:12.352Z,-1.23
2023-01-30T05:43:39.125Z,-1.26
2023-01-30T05:46:07.020Z,-1.27
2023-01-30T05:48:33.998Z,-1.31
2023-01-30T05:51:01.217Z,-1.33
2023-01-30T05:53:31.740Z,-1.38
2023-01-30T05:56:04.418Z,-1.36
2023-01-30T05:58:32.082Z,-1.35
2023-01-30T06:01:03.440Z,-1.38
2023-01-30T06:03:31.391Z,-1.34
2023-01-30T06:05:58.460Z,-1.32
2023-01-30T06:08:25.159Z,-1.29
2023-01-30T06:10:51.768Z,-1.28
2023-01-30T06:13:18.524Z,-1.31
2023-01-30T06:15:45.727Z,-1.32
2023-01-30T06:18:12.412Z,-1.27
2023-01-30T06:20:39.069Z,-1.30
2023-01-30T06:23:05.651Z,-1.35
2023-01-30T06:25:32.208Z,-1.30
2023-01-30T06:27:58.708Z,-1.25
2023-01-30T06:30:25.309Z,-1.32
2023-01-30T06:32:52.178Z,-1.23
2023-01-30T06:35:19.272Z,-1.27
2023-01-30T06:37:46.185Z,-1.20
2023-01-30T06:40:13.496Z,-1.16
2023-01-30T06:42:45.175Z,-1.16
2023-01-30T06:45:12.917Z,-1.11
2023-01-30T06:47:49.558Z,-1.10
2023-01-30T06:50:18.242Z,-1.06
2023-01-30T06:52:46.390Z,-1.04
2023-01-30T06:55:15.573Z,-1.00
2023-01-30T06:57:43.183Z,-0.95
2023-01-30T07:00:14.332Z,-0.96
2023-01-30T07:02:41.375Z,-0.79
2023-01-30T07:05:09.499Z,-0.56
2023-01-30T07:07:37.111Z,-0.33
2023-01-30T07:10:08.655Z,0.11
2023-01-30T07:12:36.342Z,0.45
2023-01-30T07:15:03.271Z,0.68
2023-01-30T07:17:30.016Z,0.72
2023-01-30T07:19:56.872Z,0.90
2023-01-30T07:22:23.726Z,1.35
2023-01-30T07:24:50.331Z,1.60
2023-01-30T07:27:17.173Z,2.14
2023-01-30T07:29:43.772Z,2.58
2023-01-30T07:32:16.916Z,3.08
2023-01-30T07:34:43.751Z,3.26
2023-01-30T07:37:10.525Z,3.97
2023-01-30T07:39:37.166Z,3.69
2023-01-30T07:42:04.183Z,3.99
2023-01-30T07:44:31.693Z,4.34
2023-01-30T07:46:58.355Z,4.37
2023-01-30T07:49:24.981Z,4.53
2023-01-30T07:51:52.722Z,4.49
2023-01-30T07:54:19.357Z,4.56
2023-01-30T07:56:46.363Z,4.72
2023-01-30T07:59:13.542Z,4.60
2023-01-30T08:01:40.208Z,4.68
2023-01-30T08:04:07.093Z,4.60
2023-01-30T08:06:38.975Z,4.38
2023-01-30T08:09:07.135Z,4.15
2023-01-30T08:11:34.806Z,3.73
2023-01-30T08:14:02.003Z,3.50
2023-01-30T08:16:28.721Z,3.06
2023-01-30T08:18:55.363Z,3.03
2023-01-30T08:21:21.984Z,3.09
2023-01-30T08:23:48.642Z,2.91
2023-01-30T08:26:15.399Z,3.23
2023-01-30T08:28:42.395Z,3.01
2023-01-30T08:31:11.258Z,2.84
2023-01-30T08:33:38.222Z,2.35
2023-01-30T08:36:05.335Z,2.13
2023-01-30T08:38:31.890Z,1.81
2023-01-30T08:40:59.450Z,1.69
2023-01-30T08:43:26.144Z,2.03
2023-01-30T08:45:56.820Z,1.70
2023-01-30T08:48:23.615Z,1.75
2023-01-30T08:50:54.655Z,1.84
2023-01-30T08:53:21.389Z,2.05
2023-01-30T08:55:52.583Z,1.95
2023-01-30T08:58:20.840Z,1.91
2023-01-30T09:00:50.206Z,1.77
2023-01-30T09:03:18.387Z,1.66
2023-01-30T09:05:45.265Z,1.67
2023-01-30T09:08:12.280Z,2.05
2023-01-30T09:10:39.094Z,2.10
2023-01-30T09:13:08.414Z,2.81
2023-01-30T09:15:35.054Z,3.63
2023-01-30T09:18:01.636Z,5.08
2023-01-30T09:20:28.343Z,5.38
2023-01-30T09:22:54.982Z,6.51
2023-01-30T09:25:21.716Z,6.92
2023-01-30T09:27:50.079Z,5.87
2023-01-30T09:30:17.640Z,5.67
2023-01-30T09:32:44.515Z,6.17
2023-01-30T09:35:11.444Z,5.67
2023-01-30T09:37:38.088Z,5.66
2023-01-30T09:40:05.271Z,5.82
2023-01-30T09:42:57.687Z,6.38
2023-01-30T09:45:38.359Z,7.45
2023-01-30T09:48:29.454Z,7.99
2023-01-30T09:51:10.944Z,8.47
2023-01-30T09:54:01.106Z,8.92
2023-01-30T09:56:28.057Z,8.33
2023-01-30T09:58:57.483Z,7.94
2023-01-30T10:01:35.984Z,8.25
2023-01-30T10:04:02.955Z,7.90
2023-01-30T10:06:33.386Z,7.46
2023-01-30T10:09:30.681Z,7.34
2023-01-30T10:12:22.088Z,6.87
2023-01-30T10:15:20.191Z,5.88
2023-01-30T10:18:20.892Z,5.71
2023-01-30T10:21:12.615Z,5.48
2023-01-30T10:24:05.212Z,5.55
2023-01-30T10:26:32.034Z,5.21
2023-01-30T10:29:07.568Z,5.02
2023-01-30T10:31:46.506Z,4.80
2023-01-30T10:34:16.673Z,4.63
2023-01-30T10:36:47.239Z,4.36
2023-01-30T10:39:54.191Z,4.82
2023-01-30T10:42:29.203Z,5.01
2023-01-30T10:45:11.107Z,5.69
2023-01-30T10:47:50.903Z,6.00
2023-01-30T10:50:21.727Z,6.37
2023-01-30T10:52:57.869Z,7.15
2023-01-30T10:55:44.565Z,7.34
2023-01-30T10:58:24.153Z,6.88
2023-01-30T11:01:02.587Z,7.87
2023-01-30T11:03:38.047Z,7.74
2023-01-30T11:06:13.771Z,7.96
2023-01-30T11:08:40.340Z,8.01
2023-01-30T11:11:31.467Z,8.08
2023-01-30T11:14:16.398Z,7.97
2023-01-30T11:16:55.476Z,7.77
2023-01-30T11:19:30.435Z,7.38
2023-01-30T11:22:02.167Z,7.20
2023-01-30T11:24:47.060Z,7.12
2023-01-30T11:27:25.752Z,7.67
2023-01-30T11:30:06.294Z,7.85
2023-01-30T11:32:32.946Z,7.94
2023-01-30T11:35:08.543Z,8.10
2023-01-30T11:37:42.473Z,8.06
2023-01-30T11:40:18.608Z,8.51
2023-01-30T11:42:51.528Z,8.44
2023-01-30T11:45:19.731Z,8.88
2023-01-30T11:48:02.936Z,8.61
2023-01-30T11:50:44.767Z,9.27
2023-01-30T11:53:25.901Z,9.67
2023-01-30T11:56:05.293Z,9.36
2023-01-30T11:58:36.269Z,9.47
2023-01-30T12:01:03.197Z,10.14
2023-01-30T12:03:30.478Z,10.09
2023-01-30T12:05:58.925Z,10.18
2023-01-30T12:08:41.871Z,10.18
2023-01-30T12:11:24.680Z,10.33
2023-01-30T12:13:53.559Z,10.27
2023-01-30T12:16:25.273Z,10.43
2023-01-30T12:19:04.045Z,9.82
2023-01-30T12:21:52.545Z,10.13
2023-01-30T12:24:39.983Z,10.17
2023-01-30T12:27:31.030Z,10.66
2023-01-30T12:30:12.567Z,10.19
2023-01-30T12:32:39.222Z,10.28
2023-01-30T12:35:18.948Z,10.88
2023-01-30T12:38:10.366Z,10.58
2023-01-30T12:41:23.611Z,10.80
2023-01-30T12:44:11.126Z,9.82
2023-01-30T12:46:49.659Z,9.32
2023-01-30T12:49:25.060Z,9.74
2023-01-30T12:52:00.704Z,9.47
2023-01-30T12:54:33.258Z,8.92
2023-01-30T12:57:17.181Z,9.27
2023-01-30T13:00:02.071Z,9.51
2023-01-30T13:02:45.850Z,9.59
2023-01-30T13:05:51.289Z,9.10
2023-01-30T13:08:52.436Z,8.88
2023-01-30T13:11:57.873Z,8.52
2023-01-30T13:14:52.714Z,8.42
2023-01-30T13:18:00.910Z,8.43
2023-01-30T13:20:43.763Z,8.67
2023-01-30T13:23:19.544Z,8.86
2023-01-30T13:25:49.242Z,8.87
2023-01-30T13:28:26.039Z,8.85
2023-01-30T13:30:55.061Z,8.72
2023-01-30T13:33:28.665Z,8.75
2023-01-30T13:36:07.637Z,8.81
2023-01-30T13:38:34.819Z,8.74
2023-01-30T13:41:03.979Z,8.82
2023-01-30T13:43:36.812Z,9.00
2023-01-30T13:46:08.847Z,8.75
2023-01-30T13:48:38.563Z,8.98
2023-01-30T13:51:15.072Z,8.61
2023-01-30T13:53:59.050Z,8.63
2023-01-30T13:56:43.154Z,8.55
2023-01-30T13:59:15.762Z,8.65
2023-01-30T14:02:04.120Z,8.48
2023-01-30T14:04:36.903Z,8.60
2023-01-30T14:07:15.824Z,8.60
2023-01-30T14:09:44.483Z,8.64
2023-01-30T14:12:26.104Z,8.44
2023-01-30T14:15:17.475Z,8.53
2023-01-30T14:18:03.083Z,8.62
2023-01-30T14:20:35.249Z,8.63
2023-01-30T14:23:10.840Z,8.62
2023-01-30T14:25:47.479Z,8.53
2023-01-30T14:28:13.994Z,8.62
2023-01-30T14:30:54.921Z,8.42
2023-01-30T14:33:21.495Z,8.56
2023-01-30T14:36:03.119Z,8.61
2023-01-30T14:38:34.447Z,8.60
2023-01-30T14:41:01.017Z,8.57
2023-01-30T14:43:42.952Z,8.53
2023-01-30T14:46:15.646Z,8.46
2023-01-30T14:48:51.890Z,8.47
2023-01-30T14:51:44.352Z,8.51
2023-01-30T14:54:16.632Z,8.55
2023-01-30T14:57:03.519Z,8.50
2023-01-30T14:59:37.741Z,8.45
2023-01-30T15:02:13.707Z,8.52
2023-01-30T15:05:02.357Z,8.47
2023-01-30T15:07:49.436Z,8.33
2023-01-30T15:10:49.954Z,8.29
2023-01-30T15:13:28.480Z,8.25
2023-01-30T15:16:32.072Z,8.26
2023-01-30T15:19:04.970Z,8.18
2023-01-30T15:21:39.797Z,8.25
2023-01-30T15:24:15.449Z,8.20
2023-01-30T15:27:20.997Z,8.18
2023-01-30T15:29:53.259Z,8.10
2023-01-30T15:32:23.207Z,8.02
2023-01-30T15:35:11.538Z,8.00
2023-01-30T15:37:53.739Z,7.95
2023-01-30T15:40:25.046Z,7.86
2023-01-30T15:43:35.512Z,7.80
2023-01-30T15:46:21.969Z,7.68
2023-01-30T15:49:06.430Z,7.55
2023-01-30T15:51:34.919Z,7.36
2023-01-30T15:54:08.424Z,7.37
2023-01-30T15:56:35.291Z,7.30
2023-01-30T15:59:02.875Z,7.19
2023-01-30T16:01:30.586Z,7.14
2023-01-30T16:04:00.219Z,7.05
2023-01-30T16:06:32.712Z,7.01
2023-01-30T16:09:06.510Z,7.00
2023-01-30T16:11:36.822Z,6.85
2023-01-30T16:14:03.499Z,6.75
2023-01-30T16:16:31.793Z,6.61
2023-01-30T16:19:05.028Z,6.60
2023-01-30T16:21:34.442Z,6.50
2023-01-30T16:24:17.892Z,6.46
2023-01-30T16:26:51.398Z,6.32
2023-01-30T16:29:23.003Z,6.20
2023-01-30T16:31:51.421Z,6.19
2023-01-30T16:34:35.453Z,6.09
2023-01-30T16:37:26.555Z,5.99
2023-01-30T16:40:13.685Z,5.88
2023-01-30T16:42:41.068Z,5.85
2023-01-30T16:45:10.331Z,5.77
2023-01-30T16:47:37.654Z,5.68
2023-01-30T16:50:05.334Z,5.71
2023-01-30T16:52:37.086Z,5.65
2023-01-30T16:55:08.217Z,5.54
2023-01-30T16:57:45.682Z,5.50
2023-01-30T17:00:25.876Z,5.44
2023-01-30T17:02:58.433Z,5.41
2023-01-30T17:05:40.734Z,5.29
2023-01-30T17:08:33.199Z,5.27
2023-01-30T17:11:03.885Z,5.19
2023-01-30T17:13:41.764Z,5.22
2023-01-30T17:16:33.422Z,5.19
2023-01-30T17:19:01.102Z,5.15
2023-01-30T17:21:37.086Z,4.96
2023-01-30T17:24:05.325Z,4.99
2023-01-30T17:26:32.850Z,4.76
2023-01-30T17:28:59.600Z,4.64
2023-01-30T17:31:27.082Z,4.35
2023-01-30T17:33:53.789Z,4.30
2023-01-30T17:36:27.043Z,4.17
2023-01-30T17:38:54.205Z,4.07
2023-01-30T17:41:24.099Z,4.02
2023-01-30T17:43:51.026Z,3.93
2023-01-30T17:46:18.290Z,3.91
2023-01-30T17:48:45.187Z,3.84
2023-01-30T17:51:14.329Z,3.96
2023-01-30T17:53:41.216Z,4.08
2023-01-30T17:56:31.040Z,4.02
2023-01-30T17:58:57.635Z,4.19
2023-01-30T18:01:24.350Z,4.16
2023-01-30T18:03:50.897Z,4.08
2023-01-30T18:06:18.275Z,4.02
2023-01-30T18:08:45.009Z,3.92
2023-01-30T18:11:12.362Z,3.86
2023-01-30T18:13:40.106Z,3.65
2023-01-30T18:16:07.022Z,3.64
2023-01-30T18:18:33.990Z,3.57
2023-01-30T18:21:00.713Z,3.35
2023-01-30T18:23:27.401Z,3.11
2023-01-30T18:25:53.987Z,3.18
2023-01-30T18:28:20.519Z,3.04
2023-01-30T18:30:47.201Z,3.17
2023-01-30T18:33:13.922Z,3.16
2023-01-30T18:35:41.475Z,3.13
2023-01-30T18:38:08.308Z,3.08
2023-01-30T18:40:37.202Z,2.96
2023-01-30T18:43:03.777Z,2.93
2023-01-30T18:45:30.380Z,2.88
2023-01-30T18:47:57.083Z,2.86
2023-01-30T18:50:23.639Z,2.76
2023-01-30T18:52:50.707Z,2.80
2023-01-30T18:55:17.424Z,2.76
2023-01-30T18:57:43.951Z,2.70
2023-01-30T19:00:11.053Z,2.69
2023-01-30T19:02:37.984Z,2.68
2023-01-30T19:05:04.739Z,2.65
2023-01-30T19:07:33.418Z,2.63
2023-01-30T19:10:00.018Z,2.53
2023-01-30T19:12:45.296Z,2.53
2023-01-30T19:15:12.046Z,2.49
2023-01-30T19:17:38.606Z,2.45
2023-01-30T19:20:10.776Z,2.25
2023-01-30T19:22:38.776Z,2.43
2023-01-30T19:25:06.015Z,2.32
2023-01-30T19:27:36.717Z,2.41
2023-01-30T19:30:04.187Z,2.29
2023-01-30T19:32:31.258Z,2.30
2023-01-30T19:34:57.974Z,2.21
2023-01-30T19:37:24.772Z,2.31
2023-01-30T19:39:51.623Z,2.12
2023-01-30T19:42:18.197Z,2.17
2023-01-30T19:44:44.934Z,2.32
2023-01-30T19:47:11.878Z,2.25
2023-01-30T19:49:38.686Z,2.19
2023-01-30T19:52:05.353Z,2.30
2023-01-30T19:54:32.827Z,2.35
2023-01-30T19:56:59.998Z,2.35
2023-01-30T19:59:26.822Z,2.33
2023-01-30T20:01:53.498Z,2.10
2023-01-30T20:04:20.105Z,2.05
2023-01-30T20:06:46.788Z,2.16
2023-01-30T20:09:16.162Z,2.19
2023-01-30T20:11:42.819Z,2.08
2023-01-30T20:14:10.817Z,2.21
2023-01-30T20:16:37.832Z,2.18
2023-01-30T20:19:12.454Z,2.40
2023-01-30T20:21:39.178Z,2.38
2023-01-30T20:24:07.065Z,2.36
2023-01-30T20:26:39.892Z,2.32
2023-01-30T20:29:08.808Z,2.28
2023-01-30T20:31:38.392Z,2.23
2023-01-30T20:34:08.106Z,2.29
2023-01-30T20:36:34.844Z,2.22
2023-01-30T20:39:04.123Z,2.19
2023-01-30T20:41:33.377Z,2.10
2023-01-30T20:44:00.870Z,2.13
2023-01-30T20:46:30.014Z,2.08
2023-01-30T20:48:58.057Z,2.10
2023-01-30T20:51:35.233Z,2.03
2023-01-30T20:54:05.333Z,2.06
2023-01-30T20:56:53.328Z,2.00
2023-01-30T20:59:24.112Z,1.87
2023-01-30T21:01:52.112Z,1.96
2023-01-30T21:04:20.013Z,1.75
2023-01-30T21:06:47.263Z,1.92
2023-01-30T21:09:22.050Z,1.85
2023-01-30T21:11:50.007Z,1.88
2023-01-30T21:14:17.375Z,1.88
2023-01-30T21:16:45.034Z,1.87
2023-01-30T21:19:15.839Z,1.84
2023-01-30T21:21:51.358Z,1.80
2023-01-30T21:24:24.281Z,1.73
2023-01-30T21:26:51.378Z,1.70
2023-01-30T21:29:21.052Z,1.68
2023-01-30T21:31:47.853Z,1.67
2023-01-30T21:34:14.916Z,1.63
2023-01-30T21:36:41.987Z,1.56
2023-01-30T21:39:31.771Z,1.57
2023-01-30T21:42:16.960Z,1.52
2023-01-30T21:44:43.571Z,1.51
2023-01-30T21:47:10.130Z,1.51
2023-01-30T21:49:36.978Z,1.35
2023-01-30T21:52:04.037Z,1.41
2023-01-30T21:54:30.624Z,1.47
2023-01-30T21:56:57.177Z,1.48
2023-01-30T21:59:23.724Z,1.49
2023-01-30T22:01:50.894Z,1.57
2023-01-30T22:04:17.861Z,1.60
2023-01-30T22:06:44.565Z,1.58
2023-01-30T22:09:15.557Z,1.63
2023-01-30T22:11:43.242Z,1.61
2023-01-30T22:14:13.275Z,1.54
2023-01-30T22:16:40.297Z,1.52
2023-01-30T22:19:06.962Z,1.62
2023-01-30T22:21:36.389Z,1.63
2023-01-30T22:24:05.559Z,1.59
2023-01-30T22:26:32.414Z,1.61
2023-01-30T22:29:00.824Z,1.51
2023-01-30T22:31:31.800Z,1.53
2023-01-30T22:33:58.404Z,1.56
2023-01-30T22:36:27.831Z,1.59
2023-01-30T22:38:54.843Z,1.63
2023-01-30T22:41:25.163Z,1.67
2023-01-30T22:43:57.514Z,1.67
2023-01-30T22:46:26.383Z,1.67
2023-01-30T22:48:54.114Z,1.64
2023-01-30T22:51:22.311Z,1.56
2023-01-30T22:54:00.253Z,1.53
2023-01-30T22:56:31.335Z,1.48
2023-01-30T22:58:57.878Z,1.36
2023-01-30T23:01:29.926Z,1.26
2023-01-30T23:03:59.134Z,1.22
2023-01-30T23:06:25.978Z,1.19
2023-01-30T23:08:54.453Z,1.15
2023-01-30T23:11:33.438Z,1.07
2023-01-30T23:14:15.892Z,1.06
2023-01-30T23:16:44.890Z,1.07
2023-01-30T23:19:13.183Z,1.12
2023-01-30T23:21:42.765Z,1.08
2023-01-30T23:24:14.343Z,1.14
2023-01-30T23:26:43.805Z,1.06
2023-01-30T23:29:15.707Z,1.13
2023-01-30T23:31:44.328Z,1.22
2023-01-30T23:37:09.866Z,1.42
2023-01-30T23:39:36.499Z,1.38
2023-01-30T23:42:03.254Z,1.34
2023-01-30T23:44:29.836Z,1.29
2023-01-30T23:46:56.677Z,1.24
2023-01-30T23:49:23.168Z,1.31
2023-01-30T23:51:51.076Z,1.30
2023-01-30T23:54:17.747Z,1.28
2023-01-30T23:56:44.995Z,1.31
2023-01-30T23:59:12.341Z,1.26
